createdAt,value
2023-05-10T00:01:11.783Z,97574.53
2023-05-10T00:03:41.452Z,97577.00
2023-05-10T00:06:10.596Z,97576.68
2023-05-10T00:08:42.220Z,97572.95
2023-05-10T00:11:11.079Z,97572.02
2023-05-10T00:13:43.065Z,97566.61
2023-05-10T00:16:22.877Z,97563.27
2023-05-10T00:18:52.046Z,97561.82
2023-05-10T00:21:21.151Z,97562.56
2023-05-10T00:23:50.244Z,97559.17
2023-05-10T00:26:19.270Z,97561.14
2023-05-10T00:28:51.811Z,97561.70
2023-05-10T00:31:21.592Z,97556.52
2023-05-10T00:33:50.454Z,97556.43
2023-05-10T00:36:22.747Z,97555.23
2023-05-10T00:38:58.529Z,97552.55
2023-05-10T00:41:40.121Z,97552.44
2023-05-10T00:44:20.227Z,97550.55
2023-05-10T00:46:49.081Z,97548.37
2023-05-10T00:49:29.897Z,97547.89
2023-05-10T00:52:03.050Z,97549.41
2023-05-10T00:54:35.494Z,97547.25
2023-05-10T00:57:06.931Z,97548.31
2023-05-10T00:59:36.030Z,97552.87
2023-05-10T01:02:16.624Z,97553.03
2023-05-10T01:04:45.223Z,97552.64
2023-05-10T01:07:26.548Z,97550.84
2023-05-10T01:09:57.816Z,97550.14
2023-05-10T01:12:36.492Z,97547.14
2023-05-10T01:15:27.396Z,97549.73
2023-05-10T01:17:59.812Z,97546.90
2023-05-10T01:20:33.324Z,97547.87
2023-05-10T01:23:41.010Z,97548.80
2023-05-10T01:26:31.450Z,97548.02
2023-05-10T01:29:30.640Z,97548.98
2023-05-10T01:32:08.257Z,97552.09
2023-05-10T01:34:43.865Z,97552.36
2023-05-10T01:37:17.565Z,97554.67
2023-05-10T01:40:02.175Z,97554.24
2023-05-10T01:42:37.386Z,97554.56
2023-05-10T01:45:09.205Z,97552.91
2023-05-10T01:47:51.647Z,97552.16
2023-05-10T01:50:23.780Z,97552.27
2023-05-10T01:52:55.770Z,97552.35
2023-05-10T01:55:39.712Z,97545.39
2023-05-10T01:58:16.786Z,97544.16
2023-05-10T02:00:47.564Z,97544.46
2023-05-10T02:03:19.997Z,97542.13
2023-05-10T02:05:54.967Z,97544.87
2023-05-10T02:08:30.777Z,97545.48
2023-05-10T02:11:06.835Z,97544.77
2023-05-10T02:13:40.468Z,97542.13
2023-05-10T02:16:09.699Z,97545.34
2023-05-10T02:18:52.619Z,97546.13
2023-05-10T02:21:26.942Z,97546.90
2023-05-10T02:24:01.136Z,97544.77
2023-05-10T02:26:41.889Z,97547.55
2023-05-10T02:29:13.961Z,97544.50
2023-05-10T02:31:44.736Z,97544.19
2023-05-10T02:34:14.814Z,97544.45
2023-05-10T02:36:47.627Z,97542.42
2023-05-10T02:39:23.410Z,97541.42
2023-05-10T02:41:56.761Z,97542.85
2023-05-10T02:44:28.168Z,97539.98
2023-05-10T02:46:58.059Z,97539.56
2023-05-10T02:49:31.858Z,97538.09
2023-05-10T02:52:03.451Z,97540.01
2023-05-10T02:54:34.370Z,97538.89
2023-05-10T02:57:05.539Z,97541.75
2023-05-10T02:59:37.116Z,97541.95
2023-05-10T03:02:06.540Z,97539.91
2023-05-10T03:04:44.611Z,97538.02
2023-05-10T03:07:13.731Z,97535.14
2023-05-10T03:09:42.954Z,97533.95
2023-05-10T03:12:15.363Z,97528.46
2023-05-10T03:14:47.440Z,97526.61
2023-05-10T03:17:22.351Z,97526.62
2023-05-10T03:20:01.534Z,97528.88
2023-05-10T03:22:38.291Z,97526.65
2023-05-10T03:25:11.898Z,97522.21
2023-05-10T03:27:42.744Z,97518.64
2023-05-10T03:30:18.496Z,97518.66
2023-05-10T03:32:47.714Z,97517.34
2023-05-10T03:35:21.152Z,97517.95
2023-05-10T03:37:49.885Z,97515.92
2023-05-10T03:40:32.530Z,97518.23
2023-05-10T03:43:12.677Z,97516.77
2023-05-10T03:45:41.253Z,97513.20
2023-05-10T03:48:09.754Z,97513.14
2023-05-10T03:50:38.416Z,97513.06
2023-05-10T03:53:09.692Z,97516.42
2023-05-10T03:55:38.607Z,97514.45
2023-05-10T03:58:08.747Z,97516.06
2023-05-10T04:00:37.316Z,97517.86
2023-05-10T04:03:09.152Z,97509.84
2023-05-10T04:05:42.851Z,97508.46
2023-05-10T04:08:11.653Z,97507.80
2023-05-10T04:10:42.650Z,97508.51
2023-05-10T04:13:14.021Z,97508.56
2023-05-10T04:15:49.937Z,97511.56
2023-05-10T04:18:26.263Z,97512.84
2023-05-10T04:20:57.860Z,97515.80
2023-05-10T04:23:30.541Z,97515.14
2023-05-10T04:26:09.623Z,97515.83
2023-05-10T04:28:40.609Z,97520.04
2023-05-10T04:31:12.682Z,97522.27
2023-05-10T04:33:45.270Z,97523.33
2023-05-10T04:36:36.115Z,97521.04
2023-05-10T04:39:18.011Z,97517.55
2023-05-10T04:41:47.199Z,97519.20
2023-05-10T04:44:18.923Z,97516.05
2023-05-10T04:46:48.056Z,97517.36
2023-05-10T04:49:17.909Z,97514.23
2023-05-10T04:51:49.956Z,97515.21
2023-05-10T04:54:21.253Z,97515.02
2023-05-10T04:56:53.407Z,97515.48
2023-05-10T04:59:25.022Z,97514.00
2023-05-10T05:01:54.380Z,97511.84
2023-05-10T05:04:26.334Z,97515.06
2023-05-10T05:06:55.057Z,97516.02
2023-05-10T05:09:33.294Z,97512.70
2023-05-10T05:12:15.202Z,97515.08
2023-05-10T05:14:44.584Z,97512.89
2023-05-10T05:17:13.918Z,97518.50
2023-05-10T05:19:42.854Z,97514.27
2023-05-10T05:22:11.856Z,97513.79
2023-05-10T05:24:40.961Z,97513.14
2023-05-10T05:27:09.806Z,97513.37
2023-05-10T05:29:38.232Z,97509.97
2023-05-10T05:32:09.566Z,97506.91
2023-05-10T05:34:38.059Z,97508.95
2023-05-10T05:37:07.073Z,97505.17
2023-05-10T05:39:37.255Z,97503.11
2023-05-10T05:42:06.405Z,97504.38
2023-05-10T05:44:35.212Z,97505.09
2023-05-10T05:47:06.684Z,97504.98
2023-05-10T05:49:48.461Z,97509.98
2023-05-10T05:52:24.664Z,97510.17
2023-05-10T05:54:53.596Z,97509.66
2023-05-10T05:57:50.285Z,97512.11
2023-05-10T06:00:19.615Z,97510.34
2023-05-10T06:02:49.044Z,97515.71
2023-05-10T06:05:33.422Z,97509.23
2023-05-10T06:08:23.612Z,97502.97
2023-05-10T06:10:55.761Z,97500.91
2023-05-10T06:13:33.355Z,97499.73
2023-05-10T06:16:07.518Z,97499.41
2023-05-10T06:18:37.139Z,97497.36
2023-05-10T06:21:06.239Z,97498.27
2023-05-10T06:23:50.773Z,97503.08
2023-05-10T06:26:19.584Z,97504.27
2023-05-10T06:28:51.015Z,97496.36
2023-05-10T06:31:22.897Z,97497.52
2023-05-10T06:34:14.931Z,97496.52
2023-05-10T06:36:46.666Z,97491.13
2023-05-10T06:39:15.192Z,97492.66
2023-05-10T06:41:47.040Z,97491.79
2023-05-10T06:44:16.659Z,97494.61
2023-05-10T06:46:45.319Z,97493.60
2023-05-10T06:49:31.591Z,97493.56
2023-05-10T06:52:00.749Z,97496.64
2023-05-10T06:54:30.060Z,97497.88
2023-05-10T06:56:58.989Z,97495.48
2023-05-10T06:59:31.062Z,97493.14
2023-05-10T07:02:00.352Z,97489.41
2023-05-10T07:04:30.419Z,97490.69
2023-05-10T07:07:02.563Z,97490.41
2023-05-10T07:09:41.513Z,97490.81
2023-05-10T07:12:13.439Z,97484.08
2023-05-10T07:14:44.798Z,97485.26
2023-05-10T07:17:13.814Z,97485.14
2023-05-10T07:19:42.591Z,97487.70
2023-05-10T07:22:12.377Z,97487.04
2023-05-10T07:24:41.562Z,97489.59
2023-05-10T07:27:10.467Z,97488.53
2023-05-10T07:29:39.644Z,97493.93
2023-05-10T07:32:09.584Z,97491.51
2023-05-10T07:34:38.141Z,97487.02
2023-05-10T07:37:08.300Z,97489.94
2023-05-10T07:39:37.181Z,97483.35
2023-05-10T07:42:07.179Z,97485.62
2023-05-10T07:44:36.883Z,97488.36
2023-05-10T07:47:08.316Z,97482.11
2023-05-10T07:49:37.073Z,97485.36
2023-05-10T07:52:08.691Z,97485.20
2023-05-10T07:54:39.042Z,97482.05
2023-05-10T07:57:07.848Z,97485.83
2023-05-10T07:59:37.563Z,97479.75
2023-05-10T08:02:07.394Z,97479.91
2023-05-10T08:04:36.175Z,97485.59
2023-05-10T08:07:05.090Z,97485.54
2023-05-10T08:09:34.679Z,97485.38
2023-05-10T08:12:03.780Z,97481.34
2023-05-10T08:14:32.993Z,97474.20
2023-05-10T08:17:01.983Z,97478.19
2023-05-10T08:19:30.923Z,97476.77
2023-05-10T08:21:59.828Z,97479.66
2023-05-10T08:24:28.413Z,97477.67
2023-05-10T08:26:58.074Z,97481.11
2023-05-10T08:29:28.531Z,97479.70
2023-05-10T08:31:59.345Z,97481.20
2023-05-10T08:34:28.678Z,97480.50
2023-05-10T08:36:58.341Z,97475.98
2023-05-10T08:39:30.634Z,97475.98
2023-05-10T08:42:01.922Z,97477.55
2023-05-10T08:44:32.100Z,97472.66
2023-05-10T08:47:05.199Z,97476.95
2023-05-10T08:49:34.545Z,97478.60
2023-05-10T08:52:05.166Z,97473.74
2023-05-10T08:54:34.351Z,97468.20
2023-05-10T08:57:03.059Z,97466.27
2023-05-10T08:59:31.636Z,97460.17
2023-05-10T09:02:01.724Z,97464.16
2023-05-10T09:04:31.121Z,97461.52
2023-05-10T09:06:59.579Z,97468.42
2023-05-10T09:09:28.549Z,97468.26
2023-05-10T09:11:57.200Z,97459.69
2023-05-10T09:14:26.187Z,97457.91
2023-05-10T09:16:56.340Z,97456.17
2023-05-10T09:19:25.113Z,97448.02
2023-05-10T09:21:53.933Z,97455.95
2023-05-10T09:24:27.010Z,97452.77
2023-05-10T09:26:57.872Z,97450.27
2023-05-10T09:29:26.264Z,97448.40
2023-05-10T09:31:57.803Z,97446.42
2023-05-10T09:34:34.869Z,97436.99
2023-05-10T09:37:05.470Z,97439.69
2023-05-10T09:39:35.607Z,97441.48
2023-05-10T09:42:09.643Z,97433.13
2023-05-10T09:44:39.449Z,97434.23
2023-05-10T09:47:07.860Z,97426.84
2023-05-10T09:49:36.273Z,97417.02
2023-05-10T09:52:05.904Z,97416.91
2023-05-10T09:54:35.649Z,97414.71
2023-05-10T09:57:04.682Z,97416.23
2023-05-10T09:59:35.967Z,97413.08
2023-05-10T10:02:06.005Z,97402.94
2023-05-10T10:04:40.246Z,97402.47
2023-05-10T10:07:09.008Z,97408.38
2023-05-10T10:09:38.114Z,97405.03
2023-05-10T10:12:07.171Z,97400.39
2023-05-10T10:14:36.735Z,97395.59
2023-05-10T10:17:08.650Z,97394.78
2023-05-10T10:19:38.234Z,97399.02
2023-05-10T10:22:07.084Z,97393.52
2023-05-10T10:24:36.574Z,97391.52
2023-05-10T10:27:10.184Z,97388.04
2023-05-10T10:29:58.869Z,97379.05
2023-05-10T10:32:31.748Z,97378.92
2023-05-10T10:35:01.135Z,97380.82
2023-05-10T10:37:51.298Z,97380.70
2023-05-10T10:40:26.883Z,97375.02
2023-05-10T10:42:56.184Z,97374.46
2023-05-10T10:45:26.634Z,97371.90
2023-05-10T10:48:14.625Z,97370.58
2023-05-10T10:50:49.505Z,97366.13
2023-05-10T10:53:18.841Z,97363.10
2023-05-10T10:55:48.929Z,97361.58
2023-05-10T10:58:38.168Z,97361.98
2023-05-10T11:01:11.701Z,97359.36
2023-05-10T11:03:40.355Z,97362.52
2023-05-10T11:06:09.718Z,97356.34
2023-05-10T11:08:45.209Z,97354.52
2023-05-10T11:11:15.689Z,97353.39
2023-05-10T11:13:45.475Z,97348.91
2023-05-10T11:16:18.384Z,97344.02
2023-05-10T11:19:08.934Z,97336.79
2023-05-10T11:22:10.054Z,97337.10
2023-05-10T11:24:38.546Z,97336.15
2023-05-10T11:27:14.694Z,97343.02
2023-05-10T11:29:44.511Z,97330.64
2023-05-10T11:32:14.239Z,97325.02
2023-05-10T11:34:43.128Z,97324.48
2023-05-10T11:37:11.520Z,97319.55
2023-05-10T11:39:46.756Z,97326.86
2023-05-10T11:42:15.677Z,97325.59
2023-05-10T11:44:46.951Z,97320.45
2023-05-10T11:47:14.929Z,97327.02
2023-05-10T11:49:46.654Z,97327.69
2023-05-10T11:52:15.638Z,97323.60
2023-05-10T11:54:52.104Z,97318.15
2023-05-10T11:57:21.658Z,97319.67
2023-05-10T11:59:54.258Z,97315.32
2023-05-10T12:02:23.591Z,97311.78
2023-05-10T12:04:52.499Z,97310.20
2023-05-10T12:07:21.317Z,97320.14
2023-05-10T12:10:03.675Z,97319.66
2023-05-10T12:12:38.961Z,97315.10
2023-05-10T12:15:11.567Z,97309.22
2023-05-10T12:17:43.468Z,97307.17
2023-05-10T12:20:17.287Z,97303.27
2023-05-10T12:22:47.027Z,97305.72
2023-05-10T12:25:15.607Z,97306.85
2023-05-10T12:27:54.463Z,97306.21
2023-05-10T12:30:23.329Z,97302.40
2023-05-10T12:32:52.745Z,97305.48
2023-05-10T12:35:23.734Z,97298.85
2023-05-10T12:37:52.344Z,97296.91
2023-05-10T12:40:21.200Z,97298.91
2023-05-10T12:42:50.226Z,97297.48
2023-05-10T12:45:19.256Z,97289.73
2023-05-10T12:47:48.064Z,97290.10
2023-05-10T12:50:16.680Z,97290.63
2023-05-10T12:52:45.236Z,97286.98
2023-05-10T12:55:14.114Z,97279.80
2023-05-10T12:57:42.808Z,97271.17
2023-05-10T13:00:11.329Z,97275.98
2023-05-10T13:02:39.833Z,97280.02
2023-05-10T13:05:08.319Z,97275.04
2023-05-10T13:07:37.303Z,97274.59
2023-05-10T13:10:07.185Z,97272.64
2023-05-10T13:12:35.550Z,97266.05
2023-05-10T13:15:05.432Z,97270.39
2023-05-10T13:17:34.378Z,97264.48
2023-05-10T13:20:04.474Z,97266.88
2023-05-10T13:22:40.274Z,97260.33
2023-05-10T13:25:09.477Z,97261.96
2023-05-10T13:27:38.426Z,97261.98
2023-05-10T13:30:08.268Z,97255.27
2023-05-10T13:32:36.715Z,97258.00
2023-05-10T13:35:06.047Z,97249.22
2023-05-10T13:37:38.259Z,97243.34
2023-05-10T13:40:08.062Z,97242.02
2023-05-10T13:42:36.821Z,97243.56
2023-05-10T13:45:06.299Z,97246.69
2023-05-10T13:47:34.965Z,97250.20
2023-05-10T13:50:05.025Z,97244.64
2023-05-10T13:52:33.433Z,97242.14
2023-05-10T13:55:01.811Z,97245.43
2023-05-10T13:57:31.309Z,97244.53
2023-05-10T13:59:59.960Z,97242.45
2023-05-10T14:02:28.911Z,97237.98
2023-05-10T14:04:57.680Z,97237.83
2023-05-10T14:07:26.074Z,97234.55
2023-05-10T14:09:54.981Z,97231.91
2023-05-10T14:12:23.551Z,97233.48
2023-05-10T14:14:53.272Z,97228.50
2023-05-10T14:17:23.423Z,97231.40
2023-05-10T14:19:53.307Z,97227.65
2023-05-10T14:22:23.790Z,97227.23
2023-05-10T14:24:55.093Z,97233.59
2023-05-10T14:27:24.896Z,97232.85
2023-05-10T14:29:54.321Z,97227.42
2023-05-10T14:32:22.837Z,97227.06
2023-05-10T14:34:51.833Z,97227.03
2023-05-10T14:37:20.480Z,97227.67
2023-05-10T14:39:49.223Z,97223.48
2023-05-10T14:42:18.094Z,97224.98
2023-05-10T14:44:47.054Z,97221.55
2023-05-10T14:47:15.814Z,97223.62
2023-05-10T14:49:45.616Z,97222.36
2023-05-10T14:52:15.381Z,97222.27
2023-05-10T14:54:44.343Z,97223.60
2023-05-10T14:57:13.790Z,97223.83
2023-05-10T14:59:42.146Z,97218.02
2023-05-10T15:02:11.473Z,97215.56
2023-05-10T15:04:40.633Z,97213.21
2023-05-10T15:07:10.179Z,97213.63
2023-05-10T15:09:40.018Z,97216.46
2023-05-10T15:12:09.418Z,97214.40
2023-05-10T15:14:38.171Z,97218.10
2023-05-10T15:17:08.487Z,97216.89
2023-05-10T15:19:37.555Z,97210.71
2023-05-10T15:22:06.444Z,97215.15
2023-05-10T15:24:35.370Z,97215.89
2023-05-10T15:27:04.394Z,97220.84
2023-05-10T15:29:33.502Z,97217.39
2023-05-10T15:32:02.910Z,97212.44
2023-05-10T15:34:34.870Z,97215.11
2023-05-10T15:37:04.532Z,97209.52
2023-05-10T15:39:32.815Z,97205.65
2023-05-10T15:42:02.536Z,97210.31
2023-05-10T15:44:31.247Z,97210.23
2023-05-10T15:47:00.117Z,97208.01
2023-05-10T15:49:28.848Z,97208.81
2023-05-10T15:51:57.616Z,97211.70
2023-05-10T15:54:27.000Z,97205.83
2023-05-10T15:56:55.676Z,97206.73
2023-05-10T15:59:23.908Z,97209.65
2023-05-10T16:01:52.336Z,97207.64
2023-05-10T16:04:21.100Z,97209.67
2023-05-10T16:06:49.750Z,97210.61
2023-05-10T16:09:19.642Z,97209.39
2023-05-10T16:11:48.269Z,97207.73
2023-05-10T16:14:17.307Z,97209.66
2023-05-10T16:16:46.169Z,97209.46
2023-05-10T16:19:16.016Z,97209.61
2023-05-10T16:21:44.841Z,97207.33
2023-05-10T16:24:13.201Z,97206.78
2023-05-10T16:26:42.003Z,97204.98
2023-05-10T16:29:10.914Z,97202.70
2023-05-10T16:31:39.708Z,97205.89
2023-05-10T16:34:08.218Z,97205.71
2023-05-10T16:36:38.094Z,97208.90
2023-05-10T16:39:06.933Z,97213.39
2023-05-10T16:41:35.647Z,97215.77
2023-05-10T16:44:04.628Z,97214.23
2023-05-10T16:46:34.107Z,97213.03
2023-05-10T16:49:03.472Z,97209.52
2023-05-10T16:51:32.157Z,97210.10
2023-05-10T16:54:00.610Z,97215.81
2023-05-10T16:56:29.108Z,97215.91
2023-05-10T16:58:58.210Z,97219.80
2023-05-10T17:01:27.268Z,97222.58
2023-05-10T17:03:56.130Z,97224.84
2023-05-10T17:06:25.956Z,97226.61
2023-05-10T17:08:54.805Z,97229.95
2023-05-10T17:11:23.475Z,97232.51
2023-05-10T17:13:52.721Z,97235.16
2023-05-10T17:16:22.107Z,97238.24
2023-05-10T17:18:50.577Z,97239.63
2023-05-10T17:21:20.280Z,97242.61
2023-05-10T17:23:49.221Z,97242.82
2023-05-10T17:26:17.571Z,97245.42
2023-05-10T17:28:46.952Z,97245.33
2023-05-10T17:31:15.292Z,97247.31
2023-05-10T17:33:44.605Z,97245.14
2023-05-10T17:36:13.035Z,97248.33
2023-05-10T17:38:42.907Z,97248.16
2023-05-10T17:41:11.408Z,97247.41
2023-05-10T17:43:39.793Z,97253.52
2023-05-10T17:46:08.491Z,97256.02
2023-05-10T17:48:38.238Z,97257.42
2023-05-10T17:51:06.960Z,97260.85
2023-05-10T17:53:35.577Z,97262.88
2023-05-10T17:56:04.310Z,97267.93
2023-05-10T17:58:33.272Z,97269.20
2023-05-10T18:01:02.662Z,97277.45
2023-05-10T18:03:31.957Z,97281.31
2023-05-10T18:06:00.591Z,97285.03
2023-05-10T18:08:30.592Z,97287.30
2023-05-10T18:10:59.514Z,97290.38
2023-05-10T18:13:28.143Z,97292.27
2023-05-10T18:15:57.485Z,97300.34
2023-05-10T18:18:25.658Z,97299.84
2023-05-10T18:20:57.908Z,97303.10
2023-05-10T18:23:28.129Z,97311.27
2023-05-10T18:25:57.856Z,97313.80
2023-05-10T18:28:27.068Z,97313.88
2023-05-10T18:30:55.433Z,97315.27
2023-05-10T18:33:23.928Z,97320.90
2023-05-10T18:35:54.459Z,97324.04
2023-05-10T18:38:22.728Z,97324.48
2023-05-10T18:40:52.271Z,97329.17
2023-05-10T18:43:21.529Z,97332.95
2023-05-10T18:45:51.281Z,97332.30
2023-05-10T18:48:20.049Z,97334.37
2023-05-10T18:50:50.080Z,97333.98
2023-05-10T18:53:18.716Z,97336.21
2023-05-10T18:55:55.149Z,97336.86
2023-05-10T18:58:24.420Z,97341.87
2023-05-10T19:00:54.233Z,97342.83
2023-05-10T19:03:23.122Z,97342.78
2023-05-10T19:05:51.517Z,97347.38
2023-05-10T19:08:19.913Z,97343.30
2023-05-10T19:10:48.591Z,97350.46
2023-05-10T19:13:17.788Z,97353.11
2023-05-10T19:15:47.721Z,97351.57
2023-05-10T19:18:16.614Z,97352.88
2023-05-10T19:20:47.049Z,97357.52
2023-05-10T19:23:17.186Z,97358.18
2023-05-10T19:25:47.342Z,97360.40
2023-05-10T19:28:15.946Z,97360.98
2023-05-10T19:30:46.638Z,97360.34
2023-05-10T19:33:15.179Z,97364.85
2023-05-10T19:35:43.759Z,97367.67
2023-05-10T19:38:12.323Z,97369.59
2023-05-10T19:40:40.955Z,97370.52
2023-05-10T19:43:09.706Z,97372.69
2023-05-10T19:45:40.075Z,97371.91
2023-05-10T19:48:08.614Z,97372.41
2023-05-10T19:50:38.401Z,97376.09
2023-05-10T19:53:07.419Z,97376.73
2023-05-10T19:55:36.907Z,97373.97
2023-05-10T19:58:05.699Z,97376.66
2023-05-10T20:00:34.525Z,97375.87
2023-05-10T20:03:07.006Z,97375.74
2023-05-10T20:05:37.892Z,97378.75
2023-05-10T20:08:06.962Z,97380.30
2023-05-10T20:10:35.602Z,97379.83
2023-05-10T20:13:04.417Z,97381.52
2023-05-10T20:15:32.887Z,97383.16
2023-05-10T20:18:01.706Z,97382.09
2023-05-10T20:20:30.614Z,97382.41
2023-05-10T20:22:59.590Z,97380.95
2023-05-10T20:25:28.577Z,97379.89
2023-05-10T20:27:57.072Z,97379.60
2023-05-10T20:30:25.549Z,97382.11
2023-05-10T20:32:54.723Z,97382.16
2023-05-10T20:35:24.379Z,97380.94
2023-05-10T20:37:53.108Z,97378.77
2023-05-10T20:40:22.237Z,97385.52
2023-05-10T20:42:54.644Z,97384.42
2023-05-10T20:45:23.198Z,97386.07
2023-05-10T20:47:51.856Z,97387.25
2023-05-10T20:50:20.926Z,97387.59
2023-05-10T20:52:53.055Z,97386.48
2023-05-10T20:55:22.114Z,97390.23
2023-05-10T20:57:53.355Z,97390.27
2023-05-10T21:00:22.236Z,97395.39
2023-05-10T21:02:50.784Z,97392.45
2023-05-10T21:05:20.014Z,97393.33
2023-05-10T21:07:48.671Z,97394.77
2023-05-10T21:10:18.298Z,97395.90
2023-05-10T21:12:46.783Z,97400.88
2023-05-10T21:15:15.247Z,97398.78
2023-05-10T21:17:45.391Z,97397.96
2023-05-10T21:20:23.038Z,97395.38
2023-05-10T21:22:51.713Z,97392.27
2023-05-10T21:25:22.110Z,97392.15
2023-05-10T21:27:50.331Z,97395.36
2023-05-10T21:30:20.078Z,97393.27
2023-05-10T21:32:48.943Z,97393.05
2023-05-10T21:35:17.916Z,97397.61
2023-05-10T21:37:47.227Z,97397.03
2023-05-10T21:40:24.800Z,97398.56
2023-05-10T21:42:53.401Z,97396.25
2023-05-10T21:45:22.145Z,97397.64
2023-05-10T21:47:57.413Z,97400.44
2023-05-10T21:50:26.415Z,97401.32
2023-05-10T21:52:55.270Z,97401.14
2023-05-10T21:55:24.728Z,97404.62
2023-05-10T21:57:53.157Z,97407.45
2023-05-10T22:00:24.956Z,97410.46
2023-05-10T22:02:53.402Z,97412.92
2023-05-10T22:05:23.020Z,97414.70
2023-05-10T22:07:52.372Z,97416.15
2023-05-10T22:10:30.180Z,97414.31
2023-05-10T22:13:00.141Z,97413.95
2023-05-10T22:15:34.195Z,97416.81
2023-05-10T22:18:17.375Z,97416.90
2023-05-10T22:20:49.010Z,97416.47
2023-05-10T22:23:18.077Z,97423.25
2023-05-10T22:25:48.064Z,97423.51
2023-05-10T22:28:16.743Z,97425.62
2023-05-10T22:30:48.285Z,97426.99
2023-05-10T22:33:26.161Z,97427.02
2023-05-10T22:35:54.871Z,97426.92
2023-05-10T22:38:26.593Z,97423.08
2023-05-10T22:40:58.594Z,97425.66
2023-05-10T22:43:40.822Z,97428.48
2023-05-10T22:46:10.469Z,97427.66
2023-05-10T22:48:39.114Z,97428.83
2023-05-10T22:51:09.222Z,97429.90
2023-05-10T22:53:37.477Z,97427.14
2023-05-10T22:56:06.566Z,97426.71
2023-05-10T22:58:37.591Z,97423.71
2023-05-10T23:01:05.860Z,97433.06
2023-05-10T23:03:34.068Z,97429.48
2023-05-10T23:06:02.186Z,97428.92
2023-05-10T23:08:32.630Z,97428.08
2023-05-10T23:11:03.329Z,97426.89
2023-05-10T23:13:34.389Z,97425.12
2023-05-10T23:16:06.666Z,97426.54
2023-05-10T23:18:35.657Z,97430.83
2023-05-10T23:21:12.963Z,97429.52
2023-05-10T23:23:41.515Z,97430.00
2023-05-10T23:26:10.362Z,97434.20
2023-05-10T23:28:38.973Z,97429.08
2023-05-10T23:31:07.513Z,97431.30
2023-05-10T23:33:36.126Z,97435.58
2023-05-10T23:36:10.833Z,97440.70
2023-05-10T23:38:40.488Z,97438.39
2023-05-10T23:41:08.799Z,97434.88
2023-05-10T23:43:37.759Z,97434.52
2023-05-10T23:46:06.847Z,97437.23
2023-05-10T23:48:39.276Z,97438.52
2023-05-10T23:51:08.427Z,97434.38
2023-05-10T23:53:37.863Z,97430.02
2023-05-10T23:56:08.433Z,97430.14
2023-05-10T23:58:36.657Z,97432.87
